Terminal Aerodrome Forecast
Issued by NWS Cleveland, OH

Home | Current Version | Previous Version | Graphics & Text | Print | Product List | Glossary On
Versions: 1 2 3 4 5 6 7 8 9 10 11 12 13 14 15 16 17 18 19 20 21 22 23 24 25 26
000
FTUS41 KCLE 140856 AAB
TAFCLE
TAF AMD
KCLE 140856Z 1409/1512 08006KT P6SM BKN120
     FM141400 07006KT P6SM OVC070
     FM141800 35005KT P6SM OVC060
     FM150000 31004KT P6SM BKN200=

USA.gov is the U.S. government's official web portal to all federal, state and local government web resources and services.